createdAt,value
2022-10-18T00:01:22.211Z,11.60
2022-10-18T00:03:49.932Z,12.10
2022-10-18T00:06:17.822Z,12.20
2022-10-18T00:08:45.588Z,12.70
2022-10-18T00:11:13.559Z,12.30
2022-10-18T00:13:41.934Z,11.40
2022-10-18T00:16:13.016Z,11.60
2022-10-18T00:18:41.760Z,11.70
2022-10-18T00:21:13.978Z,11.50
2022-10-18T00:23:42.517Z,10.80
2022-10-18T00:26:15.669Z,11.30
2022-10-18T00:28:45.462Z,11.10
2022-10-18T00:31:19.604Z,11.10
2022-10-18T00:33:50.841Z,10.80
2022-10-18T00:36:19.260Z,11.50
2022-10-18T00:38:47.983Z,9.80
2022-10-18T00:41:19.307Z,11.30
2022-10-18T00:44:02.402Z,11.20
2022-10-18T00:46:33.294Z,10.30
2022-10-18T00:51:43.674Z,10.30
2022-10-18T00:54:13.778Z,9.90
2022-10-18T00:56:44.737Z,11.00
2022-10-18T00:59:15.204Z,10.30
2022-10-18T01:01:44.072Z,10.80
2022-10-18T01:04:14.800Z,10.50
2022-10-18T01:07:01.243Z,10.20
2022-10-18T01:09:52.136Z,10.30
2022-10-18T01:12:44.172Z,9.80
2022-10-18T01:15:17.914Z,10.80
2022-10-18T01:18:16.564Z,10.20
2022-10-18T01:21:15.245Z,10.30
2022-10-18T01:24:01.900Z,9.70
2022-10-18T01:27:04.851Z,9.90
2022-10-18T01:29:58.820Z,9.70
2022-10-18T01:32:31.035Z,9.20
2022-10-18T01:35:06.052Z,10.20
2022-10-18T01:37:36.142Z,9.70
2022-10-18T01:40:06.947Z,9.80
2022-10-18T01:42:35.413Z,8.90
2022-10-18T01:45:04.518Z,9.50
2022-10-18T01:47:33.180Z,9.80
2022-10-18T01:50:04.652Z,9.50
2022-10-18T01:52:33.039Z,9.50
2022-10-18T01:55:03.536Z,8.90
2022-10-18T01:57:39.496Z,9.70
2022-10-18T02:00:16.390Z,9.00
2022-10-18T02:02:51.150Z,9.30
2022-10-18T02:05:40.395Z,9.60
2022-10-18T02:08:22.111Z,10.00
2022-10-18T02:11:04.528Z,10.30
2022-10-18T02:13:55.582Z,11.50
2022-10-18T02:19:03.342Z,10.70
2022-10-18T02:21:32.468Z,10.60
2022-10-18T02:24:02.787Z,12.50
2022-10-18T02:26:30.934Z,10.70
2022-10-18T02:28:59.105Z,10.10
2022-10-18T02:31:45.020Z,9.70
2022-10-18T02:34:41.021Z,10.20
2022-10-18T02:37:11.552Z,8.70
2022-10-18T02:39:49.259Z,9.20
2022-10-18T02:42:17.519Z,9.30
2022-10-18T02:44:45.390Z,9.80
2022-10-18T02:47:14.379Z,10.40
2022-10-18T02:49:42.350Z,10.00
2022-10-18T02:52:09.997Z,9.60
2022-10-18T02:54:37.875Z,9.60
2022-10-18T02:57:05.898Z,9.90
2022-10-18T02:59:33.709Z,9.80
2022-10-18T03:02:01.576Z,9.80
2022-10-18T03:04:29.621Z,9.30
2022-10-18T03:06:57.658Z,10.10
2022-10-18T03:09:25.692Z,9.70
2022-10-18T03:11:53.463Z,10.10
2022-10-18T03:14:21.240Z,10.10
2022-10-18T03:16:49.382Z,9.90
2022-10-18T03:19:17.563Z,10.20
2022-10-18T03:21:45.373Z,9.60
2022-10-18T03:24:13.393Z,9.40
2022-10-18T03:26:41.276Z,10.00
2022-10-18T03:29:10.579Z,10.00
2022-10-18T03:31:38.637Z,9.60
2022-10-18T03:34:06.498Z,11.10
2022-10-18T03:36:34.578Z,12.10
2022-10-18T03:39:02.334Z,13.80
2022-10-18T03:41:30.203Z,12.30
2022-10-18T03:43:57.956Z,12.00
2022-10-18T03:46:25.957Z,10.40
2022-10-18T03:48:53.901Z,11.00
2022-10-18T03:51:21.773Z,10.60
2022-10-18T03:53:49.534Z,10.10
2022-10-18T03:56:17.397Z,10.40
2022-10-18T03:58:45.262Z,11.90
2022-10-18T04:01:13.171Z,12.60
2022-10-18T04:03:41.057Z,11.50
2022-10-18T04:06:10.000Z,12.50
2022-10-18T04:08:38.259Z,12.90
2022-10-18T04:11:11.210Z,14.90
2022-10-18T04:13:39.420Z,15.90
2022-10-18T04:16:09.337Z,15.70
2022-10-18T04:18:38.839Z,16.30
2022-10-18T04:21:06.707Z,19.80
2022-10-18T04:23:37.873Z,21.90
2022-10-18T04:26:07.706Z,23.50
2022-10-18T04:28:40.158Z,24.50
2022-10-18T04:31:09.073Z,25.00
2022-10-18T04:33:37.299Z,28.50
2022-10-18T04:36:05.167Z,31.30
2022-10-18T04:38:32.946Z,34.70
2022-10-18T04:41:00.694Z,44.40
2022-10-18T04:43:29.175Z,54.80
2022-10-18T04:45:57.458Z,43.20
2022-10-18T04:48:25.314Z,31.60
2022-10-18T04:50:53.284Z,22.00
2022-10-18T04:53:21.150Z,18.30
2022-10-18T04:55:50.449Z,18.60
2022-10-18T04:58:19.196Z,17.60
2022-10-18T05:00:47.895Z,16.20
2022-10-18T05:03:16.916Z,16.00
2022-10-18T05:06:03.089Z,15.30
2022-10-18T05:08:33.568Z,15.30
2022-10-18T05:11:02.346Z,22.10
2022-10-18T05:13:31.318Z,24.80
2022-10-18T05:16:00.354Z,23.80
2022-10-18T05:18:28.472Z,19.30
2022-10-18T05:20:56.822Z,19.00
2022-10-18T05:23:25.458Z,15.30
2022-10-18T05:25:54.334Z,15.00
2022-10-18T05:28:41.100Z,15.10
2022-10-18T05:31:11.946Z,15.00
2022-10-18T05:33:40.191Z,14.70
2022-10-18T05:36:09.049Z,14.50
2022-10-18T05:38:43.520Z,15.20
2022-10-18T05:41:12.579Z,21.00
2022-10-18T05:43:41.140Z,19.20
2022-10-18T05:46:14.518Z,15.70
2022-10-18T05:48:44.870Z,15.10
2022-10-18T05:51:12.706Z,14.70
2022-10-18T05:53:40.695Z,12.30
2022-10-18T05:56:09.276Z,12.10
2022-10-18T05:58:38.021Z,11.60
2022-10-18T06:01:06.664Z,11.00
2022-10-18T06:03:35.332Z,10.60
2022-10-18T06:06:09.208Z,10.90
2022-10-18T06:08:38.815Z,10.00
2022-10-18T06:11:08.966Z,10.50
2022-10-18T06:13:44.866Z,10.90
2022-10-18T06:16:14.181Z,10.00
2022-10-18T06:18:42.823Z,11.10
2022-10-18T06:21:10.778Z,11.10
2022-10-18T06:23:38.647Z,10.70
2022-10-18T06:26:08.257Z,10.60
2022-10-18T06:28:37.914Z,10.60
2022-10-18T06:31:06.748Z,10.30
2022-10-18T06:33:36.020Z,11.70
2022-10-18T06:36:13.330Z,11.40
2022-10-18T06:38:41.301Z,10.70
2022-10-18T06:41:10.099Z,11.90
2022-10-18T06:43:38.157Z,11.40
2022-10-18T06:46:08.167Z,11.50
2022-10-18T06:48:38.508Z,10.90
2022-10-18T06:51:08.109Z,11.20
2022-10-18T06:53:44.221Z,11.30
2022-10-18T06:56:16.638Z,10.90
2022-10-18T06:58:44.803Z,10.20
2022-10-18T07:01:18.558Z,10.90
2022-10-18T07:03:48.530Z,10.80
2022-10-18T07:06:18.446Z,10.20
2022-10-18T07:08:47.996Z,11.60
2022-10-18T07:11:19.099Z,11.90
2022-10-18T07:13:47.468Z,11.20
2022-10-18T07:16:18.835Z,11.10
2022-10-18T07:18:49.845Z,9.90
2022-10-18T07:23:48.279Z,9.90
2022-10-18T07:26:23.901Z,9.60
2022-10-18T07:28:55.499Z,9.60
2022-10-18T07:31:24.548Z,9.60
2022-10-18T07:33:53.855Z,10.60
2022-10-18T07:36:22.373Z,9.80
2022-10-18T07:38:52.346Z,10.90
2022-10-18T07:41:21.755Z,10.20
2022-10-18T07:43:51.464Z,11.10
2022-10-18T07:46:21.166Z,11.30
2022-10-18T07:48:49.611Z,11.20
2022-10-18T07:51:19.132Z,10.90
2022-10-18T07:53:47.426Z,11.00
2022-10-18T07:56:21.389Z,10.20
2022-10-18T07:58:52.325Z,9.00
2022-10-18T08:01:25.560Z,9.60
2022-10-18T08:03:54.114Z,9.40
2022-10-18T08:06:23.320Z,10.40
2022-10-18T08:08:51.262Z,11.10
2022-10-18T08:11:24.507Z,10.60
2022-10-18T08:13:54.008Z,9.20
2022-10-18T08:16:27.637Z,8.90
2022-10-18T08:18:58.446Z,10.30
2022-10-18T08:21:26.721Z,9.60
2022-10-18T08:23:55.202Z,9.10
2022-10-18T08:26:23.687Z,9.50
2022-10-18T08:29:10.310Z,9.10
2022-10-18T08:31:38.386Z,9.40
2022-10-18T08:34:06.107Z,7.00
2022-10-18T08:36:34.016Z,7.00
2022-10-18T08:39:03.187Z,7.60
2022-10-18T08:41:36.905Z,7.50
2022-10-18T08:44:13.560Z,7.80
2022-10-18T08:46:47.073Z,8.10
2022-10-18T08:49:46.905Z,7.70
2022-10-18T08:52:35.880Z,8.20
2022-10-18T08:55:18.755Z,7.80
2022-10-18T08:57:48.565Z,7.40
2022-10-18T09:00:22.949Z,7.00
2022-10-18T09:03:42.456Z,7.40
2022-10-18T09:06:39.215Z,6.80
2022-10-18T09:09:19.148Z,6.80
2022-10-18T09:11:46.894Z,7.10
2022-10-18T09:14:41.727Z,7.50
2022-10-18T09:17:18.696Z,7.50
2022-10-18T09:19:47.025Z,8.00
2022-10-18T09:22:18.731Z,7.80
2022-10-18T09:24:56.742Z,7.20
2022-10-18T09:27:37.858Z,7.60
2022-10-18T09:31:03.120Z,7.80
2022-10-18T09:33:43.999Z,7.00
2022-10-18T09:38:49.703Z,7.30
2022-10-18T09:41:28.698Z,7.80
2022-10-18T09:44:06.900Z,7.40
2022-10-18T09:46:41.094Z,7.50
2022-10-18T09:49:37.642Z,7.30
2022-10-18T09:52:11.423Z,7.20
2022-10-18T09:54:55.237Z,7.70
2022-10-18T09:57:44.945Z,7.30
2022-10-18T10:00:25.022Z,7.90
2022-10-18T10:02:52.908Z,8.00
2022-10-18T10:05:20.954Z,9.10
2022-10-18T10:07:49.644Z,8.00
2022-10-18T10:10:23.466Z,8.10
2022-10-18T10:13:22.257Z,9.30
2022-10-18T10:15:58.154Z,8.50
2022-10-18T10:18:30.301Z,8.30
2022-10-18T10:21:05.777Z,8.00
2022-10-18T10:23:44.578Z,7.70
2022-10-18T10:26:27.561Z,6.70
2022-10-18T10:28:55.515Z,6.30
2022-10-18T10:31:31.886Z,6.30
2022-10-18T10:34:15.072Z,6.20
2022-10-18T10:36:54.336Z,6.50
2022-10-18T10:39:24.439Z,7.00
2022-10-18T10:41:55.589Z,7.40
2022-10-18T10:44:26.039Z,6.60
2022-10-18T10:46:54.972Z,7.20
2022-10-18T10:49:41.571Z,7.30
2022-10-18T10:52:33.719Z,7.40
2022-10-18T10:55:23.555Z,7.10
2022-10-18T10:57:52.938Z,7.90
2022-10-18T11:00:42.105Z,7.70
2022-10-18T11:03:28.016Z,7.50
2022-10-18T11:06:00.837Z,7.50
2022-10-18T11:08:40.289Z,8.10
2022-10-18T11:11:27.959Z,7.50
2022-10-18T11:14:13.652Z,8.10
2022-10-18T11:20:11.421Z,7.80
2022-10-18T11:23:01.248Z,8.00
2022-10-18T11:26:04.900Z,8.20
2022-10-18T11:28:54.930Z,8.00
2022-10-18T11:31:37.781Z,8.60
2022-10-18T11:34:30.061Z,8.30
2022-10-18T11:37:39.358Z,8.10
2022-10-18T11:40:44.974Z,7.80
2022-10-18T11:43:38.969Z,7.60
2022-10-18T11:46:31.776Z,7.70
2022-10-18T11:49:37.104Z,7.50
2022-10-18T11:52:09.227Z,8.20
2022-10-18T11:55:16.182Z,7.50
2022-10-18T11:57:55.162Z,8.10
2022-10-18T12:00:23.225Z,7.70
2022-10-18T12:03:16.312Z,8.00
2022-10-18T12:05:47.551Z,7.80
2022-10-18T12:08:21.705Z,7.50
2022-10-18T12:11:09.240Z,7.90
2022-10-18T12:13:51.805Z,7.50
2022-10-18T12:16:39.000Z,7.50
2022-10-18T12:19:23.591Z,7.10
2022-10-18T12:21:58.004Z,7.30
2022-10-18T12:24:30.481Z,7.40
2022-10-18T12:27:01.524Z,7.90
2022-10-18T12:29:50.340Z,7.60
2022-10-18T12:32:30.031Z,8.00
2022-10-18T12:35:15.497Z,6.60
2022-10-18T12:38:05.071Z,6.80
2022-10-18T12:40:43.698Z,7.10
2022-10-18T12:43:36.939Z,7.10
2022-10-18T12:46:13.055Z,6.70
2022-10-18T12:48:45.743Z,6.70
2022-10-18T12:51:16.726Z,7.10
2022-10-18T12:53:47.766Z,7.00
2022-10-18T12:56:28.036Z,7.60
2022-10-18T12:59:14.529Z,7.70
2022-10-18T13:01:51.698Z,7.30
2022-10-18T13:04:28.554Z,6.90
2022-10-18T13:07:05.596Z,6.40
2022-10-18T13:09:36.181Z,6.90
2022-10-18T13:12:09.798Z,6.70
2022-10-18T13:15:26.010Z,6.60
2022-10-18T13:18:31.034Z,6.40
2022-10-18T13:21:23.763Z,6.60
2022-10-18T13:24:26.775Z,6.90
2022-10-18T13:27:35.083Z,6.90
2022-10-18T13:30:31.263Z,6.00
2022-10-18T13:33:06.426Z,6.50
2022-10-18T13:36:06.763Z,6.30
2022-10-18T13:38:48.641Z,7.40
2022-10-18T13:41:31.271Z,6.80
2022-10-18T13:44:40.066Z,7.20
2022-10-18T13:47:08.187Z,7.30
2022-10-18T13:49:38.956Z,7.30
2022-10-18T13:52:22.067Z,7.00
2022-10-18T13:55:06.641Z,6.90
2022-10-18T13:57:56.331Z,7.30
2022-10-18T14:00:27.070Z,7.10
2022-10-18T14:06:01.553Z,6.90
2022-10-18T14:11:33.946Z,6.90
2022-10-18T14:14:17.152Z,7.20
2022-10-18T14:17:18.010Z,7.00
2022-10-18T14:20:14.823Z,7.00
2022-10-18T14:23:20.263Z,6.80
2022-10-18T14:25:48.886Z,7.90
2022-10-18T14:28:27.369Z,6.60
2022-10-18T14:31:07.278Z,6.30
2022-10-18T14:36:19.865Z,6.60
2022-10-18T14:39:00.143Z,7.00
2022-10-18T14:41:33.471Z,7.10
2022-10-18T14:44:16.755Z,8.20
2022-10-18T14:46:51.038Z,8.50
2022-10-18T14:49:20.607Z,9.50
2022-10-18T14:51:54.720Z,9.40
2022-10-18T14:54:36.544Z,7.40
2022-10-18T14:57:07.115Z,6.30
2022-10-18T14:59:44.354Z,6.00
2022-10-18T15:02:17.638Z,7.30
2022-10-18T15:04:46.366Z,6.80
2022-10-18T15:07:17.734Z,6.40
2022-10-18T15:09:47.078Z,7.30
2022-10-18T15:12:16.175Z,9.40
2022-10-18T15:14:46.504Z,9.60
2022-10-18T15:17:20.658Z,8.60
2022-10-18T15:20:01.873Z,9.30
2022-10-18T15:22:33.906Z,10.50
2022-10-18T15:25:16.955Z,12.10
2022-10-18T15:27:50.521Z,12.40
2022-10-18T15:30:29.758Z,12.20
2022-10-18T15:33:01.623Z,13.20
2022-10-18T15:35:32.507Z,12.90
2022-10-18T15:38:12.913Z,14.20
2022-10-18T15:40:42.250Z,14.60
2022-10-18T15:43:28.213Z,13.70
2022-10-18T15:46:06.650Z,14.90
2022-10-18T15:48:40.354Z,16.10
2022-10-18T15:51:46.656Z,16.70
2022-10-18T15:54:19.264Z,18.50
2022-10-18T15:56:48.464Z,19.20
2022-10-18T15:59:25.364Z,18.90
2022-10-18T16:01:54.146Z,19.80
2022-10-18T16:04:33.049Z,19.00
2022-10-18T16:07:00.777Z,19.20
2022-10-18T16:09:29.433Z,18.70
2022-10-18T16:11:58.487Z,17.90
2022-10-18T16:14:29.945Z,17.70
2022-10-18T16:17:06.928Z,19.00
2022-10-18T16:19:34.687Z,19.90
2022-10-18T16:22:06.262Z,18.10
2022-10-18T16:24:34.520Z,18.20
2022-10-18T16:27:02.305Z,19.00
2022-10-18T16:29:32.971Z,18.90
2022-10-18T16:32:01.242Z,19.00
2022-10-18T16:34:29.563Z,19.80
2022-10-18T16:36:57.234Z,21.10
2022-10-18T16:39:25.498Z,23.00
2022-10-18T16:41:53.468Z,24.10
2022-10-18T16:44:21.166Z,23.60
2022-10-18T16:46:52.375Z,23.00
2022-10-18T16:49:24.988Z,23.80
2022-10-18T16:51:54.437Z,29.10
2022-10-18T16:54:23.606Z,34.80
2022-10-18T16:56:51.604Z,44.00
2022-10-18T16:59:28.085Z,47.20
2022-10-18T17:01:55.931Z,48.50
2022-10-18T17:04:23.718Z,51.50
2022-10-18T17:06:54.423Z,58.20
2022-10-18T17:09:22.158Z,59.20
2022-10-18T17:11:49.885Z,62.00
2022-10-18T17:14:17.636Z,60.30
2022-10-18T17:16:48.737Z,60.70
2022-10-18T17:19:21.362Z,59.30
2022-10-18T17:21:49.126Z,61.70
2022-10-18T17:24:16.806Z,62.60
2022-10-18T17:26:44.549Z,64.20
2022-10-18T17:29:12.439Z,65.50
2022-10-18T17:31:40.295Z,67.40
2022-10-18T17:34:09.040Z,72.30
2022-10-18T17:36:36.806Z,76.10
2022-10-18T17:39:04.900Z,59.70
2022-10-18T17:41:32.593Z,42.30
2022-10-18T17:44:03.117Z,39.00
2022-10-18T17:46:31.726Z,37.40
2022-10-18T17:48:59.471Z,37.40
2022-10-18T17:51:27.307Z,36.80
2022-10-18T17:53:55.054Z,40.20
2022-10-18T17:56:22.759Z,39.10
2022-10-18T17:58:51.622Z,36.50
2022-10-18T18:01:22.231Z,41.80
2022-10-18T18:03:50.837Z,38.30
2022-10-18T18:06:21.616Z,37.50
2022-10-18T18:08:51.056Z,35.90
2022-10-18T18:11:18.878Z,31.70
2022-10-18T18:13:48.247Z,31.40
2022-10-18T18:16:22.046Z,33.30
2022-10-18T18:18:52.362Z,36.20
2022-10-18T18:21:21.001Z,35.00
2022-10-18T18:23:49.483Z,33.30
2022-10-18T18:26:18.984Z,32.50
2022-10-18T18:28:47.050Z,31.90
2022-10-18T18:31:23.551Z,31.30
2022-10-18T18:33:53.159Z,29.40
2022-10-18T18:36:22.761Z,28.30
2022-10-18T18:38:55.502Z,28.10
2022-10-18T18:41:27.461Z,26.70
2022-10-18T18:43:59.450Z,28.10
2022-10-18T18:46:30.086Z,26.00
2022-10-18T18:48:58.263Z,25.00
2022-10-18T18:51:26.648Z,26.60
2022-10-18T18:53:54.849Z,26.20
2022-10-18T18:56:25.219Z,29.60
2022-10-18T18:58:54.371Z,28.90
2022-10-18T19:01:25.339Z,31.00
2022-10-18T19:06:24.512Z,30.70
2022-10-18T19:09:04.580Z,29.20
2022-10-18T19:11:36.044Z,28.40
2022-10-18T19:14:05.021Z,29.40
2022-10-18T19:16:36.800Z,28.10
2022-10-18T19:19:16.930Z,29.20
2022-10-18T19:21:51.452Z,31.10
2022-10-18T19:24:20.964Z,29.10
2022-10-18T19:26:57.423Z,28.80
2022-10-18T19:29:32.062Z,30.70
2022-10-18T19:32:02.167Z,31.90
2022-10-18T19:34:31.568Z,30.30
2022-10-18T19:36:59.231Z,33.50
2022-10-18T19:39:29.074Z,33.00
2022-10-18T19:41:59.805Z,31.70
2022-10-18T19:44:30.597Z,30.30
2022-10-18T19:49:28.707Z,32.10
2022-10-18T19:51:57.313Z,37.10
2022-10-18T19:54:26.654Z,40.70
2022-10-18T19:56:54.435Z,40.70
2022-10-18T19:59:22.893Z,38.80
2022-10-18T20:01:50.779Z,38.20
2022-10-18T20:04:18.642Z,37.00
2022-10-18T20:06:46.702Z,37.70
2022-10-18T20:09:17.850Z,37.90
2022-10-18T20:11:48.318Z,36.80
2022-10-18T20:14:16.068Z,37.70
2022-10-18T20:16:43.906Z,36.20
2022-10-18T20:19:11.911Z,35.50
2022-10-18T20:21:40.029Z,34.60
2022-10-18T20:24:09.410Z,33.90
2022-10-18T20:26:37.641Z,35.20
2022-10-18T20:29:07.558Z,34.00
2022-10-18T20:31:38.487Z,34.20
2022-10-18T20:36:37.120Z,35.70
2022-10-18T20:39:06.103Z,35.40
2022-10-18T20:41:38.062Z,36.30
2022-10-18T20:44:08.737Z,35.50
2022-10-18T20:46:37.843Z,35.90
2022-10-18T20:49:07.590Z,36.00
2022-10-18T20:51:36.028Z,36.60
2022-10-18T20:56:39.689Z,34.70
2022-10-18T20:59:10.144Z,34.10
2022-10-18T21:01:39.303Z,34.20
2022-10-18T21:04:09.460Z,35.80
2022-10-18T21:06:43.390Z,35.20
2022-10-18T21:09:19.398Z,35.30
2022-10-18T21:11:50.044Z,37.60
2022-10-18T21:16:48.827Z,34.00
2022-10-18T21:19:27.146Z,35.10
2022-10-18T21:21:57.229Z,32.40
2022-10-18T21:24:26.468Z,33.00
2022-10-18T21:26:54.838Z,32.80
2022-10-18T21:29:24.654Z,32.60
2022-10-18T21:31:55.685Z,33.00
2022-10-18T21:34:23.730Z,31.70
2022-10-18T21:36:51.506Z,30.90
2022-10-18T21:41:52.122Z,29.80
2022-10-18T21:44:20.079Z,30.40
2022-10-18T21:46:48.007Z,30.30
2022-10-18T21:49:16.129Z,30.20
2022-10-18T21:51:44.251Z,30.30
2022-10-18T21:54:14.339Z,30.00
2022-10-18T21:56:42.238Z,29.10
2022-10-18T21:59:13.779Z,28.30
2022-10-18T22:01:43.598Z,29.40
2022-10-18T22:04:21.003Z,29.30
2022-10-18T22:06:49.189Z,28.30
2022-10-18T22:09:16.945Z,29.70
2022-10-18T22:11:48.796Z,27.90
2022-10-18T22:14:16.619Z,27.80
2022-10-18T22:16:44.326Z,27.50
2022-10-18T22:19:12.529Z,26.10
2022-10-18T22:21:40.440Z,26.50
2022-10-18T22:24:09.564Z,26.20
2022-10-18T22:26:39.971Z,26.40
2022-10-18T22:29:15.350Z,27.10
2022-10-18T22:31:45.880Z,27.10
2022-10-18T22:34:27.535Z,26.60
2022-10-18T22:36:56.353Z,27.30
2022-10-18T22:39:24.638Z,26.80
2022-10-18T22:41:55.874Z,26.20
2022-10-18T22:44:24.402Z,26.50
2022-10-18T22:46:52.053Z,25.90
2022-10-18T22:49:19.743Z,26.00
2022-10-18T22:51:47.517Z,27.10
2022-10-18T22:54:15.343Z,27.40
2022-10-18T22:56:43.118Z,26.70
2022-10-18T22:59:11.026Z,27.30
2022-10-18T23:01:38.934Z,25.50
2022-10-18T23:04:06.838Z,25.30
2022-10-18T23:06:36.092Z,25.50
2022-10-18T23:09:07.069Z,25.40
2022-10-18T23:14:05.409Z,22.60
2022-10-18T23:16:33.311Z,22.90
2022-10-18T23:19:01.125Z,23.90
2022-10-18T23:21:29.315Z,23.40
2022-10-18T23:23:57.520Z,23.30
2022-10-18T23:26:27.716Z,23.70
2022-10-18T23:28:55.714Z,24.80
2022-10-18T23:31:26.867Z,24.20
2022-10-18T23:33:57.048Z,24.20
2022-10-18T23:36:25.443Z,23.20
2022-10-18T23:38:53.456Z,23.70
2022-10-18T23:41:22.356Z,22.30
2022-10-18T23:43:50.245Z,22.40
2022-10-18T23:46:19.305Z,21.90
2022-10-18T23:48:48.212Z,21.50
2022-10-18T23:51:16.593Z,22.30
2022-10-18T23:53:44.398Z,21.20
2022-10-18T23:56:14.548Z,21.90
2022-10-18T23:58:43.963Z,21.40
